Latest Coastal Weather Observations for Hobart Airport

IDT60701

Issued at 9:03 pm EST Monday 21 May 2018 (issued every 10 minutes, with the page automatically refreshed every 10 minutes)

About coastal observations | Map of coastal stations | Coastal observations for TAS | Marine services | Other Formats
Station Details ID: 094008 Name: HOBART AIRPORT Lat: -42.83 Lon: 147.50 Height: 4.0 m
Data from the previous 72 hours. | See also: Recent months at Hobart Airport
Date/Time
EST
Temp
°C
Wind Pressure Rain since
9am
mm
Weather Cloud Vis
km
Sea
Height
m
Swell
Dir  Spd
kts
Gust
kts
hPa Trend Height
m
Period
s
Dir
21/08:30pm 14.4 WNW 20 28 1004.3 - - - Mostly clear 10 - - - -
21/08:00pm 14.3 WNW 16 21 1004.4 - - - Mostly clear 10 - - - -
21/07:30pm 14.3 WNW 18 27 1004.5 - - - Mostly clear 10 - - - -
21/07:00pm 14.1 WNW 21 28 1004.7 - - - Partly cloudy 10 - - - -
21/06:30pm 13.8 WNW 19 26 1004.8 - - - Partly cloudy 10 - - - -
21/06:15pm 13.7 WNW 17 27 1004.7 - - - Partly cloudy 10 - - - -
21/06:00pm 14.0 W 14 18 1004.7 F - Fine Mostly cloudy 40 - - - -
21/05:30pm 13.8 WNW 15 22 1004.9 - - - Partly cloudy 10 - - - -
21/05:00pm 13.7 WNW 11 14 1005.3 - - - Partly cloudy 10 - - - -
21/04:30pm 13.9 NW 12 17 1005.5 - - - Partly cloudy 10 - - - -
21/04:00pm 14.0 NW 11 18 1006.0 - - - Mostly clear 10 - - - -
21/03:30pm 14.2 NW 15 23 1006.0 - - - Partly cloudy 10 - - - -
21/03:00pm 14.5 NW 17 24 1005.8 F 0.0 Fine Mostly cloudy 40 - - - -
21/02:30pm 15.1 - - - 1006.0 - - - Partly cloudy 10 - - - -
21/02:00pm 15.5 - - - 1006.2 - - - Partly cloudy 10 - - - -
21/01:30pm 15.0 - - - 1006.3 - - - Partly cloudy 10 - - - -
21/01:00pm 14.0 - - - 1006.0 - - - Partly cloudy 10 - - - -
21/12:30pm 14.0 - - - 1007.0 - - - Partly cloudy 10 - - - -
21/12:00pm 14.0 - - - 1008.0 - - - Partly cloudy 10 - - - -
21/11:30am 14.0 - - - 1008.0 - - - Partly cloudy 10 - - - -
21/11:00am 14.0 - - - 1009.0 - - - Mostly clear 10 - - - -
21/10:30am 13.1 WNW 23 37 1008.9 - 0.0 - Mostly clear 10 - - - -
21/10:21am 13.2 WNW 17 37 1008.6 - 0.0 - Mostly clear 10 - - - -
21/10:19am 13.1 WNW 15 25 1008.6 - 0.0 - Mostly clear 10 - - - -
21/10:00am 12.6 NW 16 23 1009.4 - 0.0 - Mostly clear 10 - - - -
21/09:33am 12.8 WNW 19 29 1009.7 - 0.0 - Mostly clear 10 - - - -
21/09:30am 12.7 WNW 18 26 1009.8 - 0.0 - Mostly clear 10 - - - -
21/09:00am 12.4 WNW 20 29 1009.4 F 1.4 Fine Mostly cloudy 35 - - - -
21/08:33am 11.9 NW 18 29 1009.4 - 1.4 - - 10 - - - -
21/08:30am 11.9 NW 17 26 1009.4 - 1.4 - Mostly clear 10 - - - -
21/08:25am 11.7 NW 16 26 1009.4 - 1.4 - Mostly clear 10 - - - -
21/08:00am 11.5 WNW 14 18 1009.7 - 1.4 - Mostly clear 10 - - - -
21/07:30am 11.1 NW 11 19 1009.8 - 1.4 - Mostly clear 10 - - - -
21/07:00am 10.3 WNW 8 11 1010.0 - 1.4 - Mostly clear 10 - - - -
21/06:30am 10.7 NW 7 9 1009.8 - 1.4 - Mostly clear 10 - - - -
21/06:00am 10.1 NW 9 13 1009.8 R 1.4 Fine Mostly clear 35 - - - -
21/05:30am 10.7 WNW 8 11 1009.6 - 1.4 - Mostly clear 10 - - - -
21/05:00am 10.2 NNW 6 8 1009.5 - 1.4 - Mostly clear 10 - - - -
21/04:30am 10.4 NW 7 8 1009.5 - 1.4 - Mostly clear 10 - - - -
21/04:00am 10.1 NW 7 9 1009.1 - 1.4 - Mostly clear 10 - - - -
21/03:30am 10.7 WNW 8 11 1009.5 - 1.4 - Mostly clear 10 - - - -
21/03:00am 10.7 NW 9 11 1009.4 R 1.4 Fine Partly cloudy 30 - - - -
21/02:30am 9.7 NW 7 8 1009.5 - 1.4 - Mostly clear 10 - - - -
21/02:00am 10.0 WNW 6 8 1009.7 - 1.4 - Partly cloudy 10 - - - -
21/01:30am 9.5 NW 7 8 1009.6 - 1.4 - Mostly clear 10 - - - -
21/01:00am 10.1 W 7 11 1009.6 - 1.4 - Mostly clear 10 - - - -
21/12:30am 10.5 WNW 7 10 1009.5 - 1.4 Rain Mostly clear 10 - - - -
21/12:00am 11.5 SW 8 10 1009.5 R 1.4 Distant precip. Mostly cloudy 30 - - - -
 
Date/Time
EST
Temp
°C
Wind Pressure Rain since
9am
mm
Weather Cloud Vis
km
Sea
Height
m
Swell
Dir  Spd
kts
Gust
kts
hPa Trend Height
m
Period
s
Dir
20/11:30pm 12.0 WNW 11 15 1009.2 - 1.4 - Mostly clear 10 - - - -
20/11:00pm 11.4 W 8 10 1008.8 - 1.4 - Mostly clear 10 - - - -
20/10:30pm 11.4 NNW 11 14 1008.7 - 1.4 - Partly cloudy 10 - - - -
20/10:00pm 11.0 N 5 7 1008.8 - 1.4 - Mostly clear 10 - - - -
20/09:30pm 11.7 N 5 6 1008.6 - 1.4 - Mostly clear 10 - - - -
20/09:00pm 11.6 N 9 13 1008.7 F 1.4 Recent precip. Mostly cloudy 30 - - - -
20/08:30pm 10.9 NE 6 8 1008.6 - 1.4 - Mostly clear 10 - - - -
20/08:00pm 11.7 WNW 9 14 1008.7 - 1.4 - Mostly clear 10 - - - -
20/07:30pm 11.9 N 7 11 1008.4 - 0.0 - Mostly clear 10 - - - -
20/07:00pm 11.7 N 8 14 1008.1 - 0.0 - Mostly clear 10 - - - -
20/06:30pm 11.7 NNW 7 11 1008.1 - 0.0 - Mostly clear 10 - - - -
20/06:00pm 11.2 NNW 7 9 1008.1 F 0.0 Showers Mostly cloudy 30 - - - -
20/05:30pm 11.7 NNW 5 8 1008.2 - 0.0 - Mostly clear 10 - - - -
20/05:00pm 11.7 NNW 6 9 1008.5 - 0.0 - Mostly clear 10 - - - -
20/04:30pm 11.8 NNW 8 14 1008.8 - 0.0 - Mostly clear 10 - - - -
20/04:00pm 12.2 NNW 9 15 1009.0 - 0.0 - Mostly clear 10 - - - -
20/03:30pm 12.5 NNW 9 13 1009.1 - 0.0 - Mostly clear 10 - - - -
20/03:00pm 14.6 NW 13 17 1009.1 R 0.0 Showers Mostly cloudy 30 - - - -
20/02:30pm 13.8 NNW 7 9 1009.0 - 0.0 - Partly cloudy 10 - - - -
20/02:00pm 14.2 NW 6 10 1009.3 - 0.0 - Partly cloudy 10 - - - -
20/01:30pm 14.2 WSW 9 13 1009.3 - 0.0 - Partly cloudy 10 - - - -
20/01:00pm 13.9 SW 5 7 1009.4 - 0.0 - Partly cloudy 10 - - - -
20/12:30pm 13.9 WSW 9 12 1009.4 - 0.0 - Mostly clear 10 - - - -
20/12:00pm 13.9 SW 12 19 1009.6 R 0.0 Fine Mostly cloudy 35 - - - -
20/11:30am 14.5 WNW 5 10 1009.7 - 0.0 - Mostly clear 10 - - - -
20/11:00am 14.9 SW 5 8 1009.8 - 0.0 - Mostly clear 10 - - - -
20/10:30am 14.2 SW 8 11 1009.8 - 0.0 - Mostly clear 10 - - - -
20/10:00am 13.8 SSW 6 10 1009.6 - 0.0 - Mostly clear 10 - - - -
20/09:30am 13.7 SSE 5 7 1009.4 - 0.0 - Mostly clear 10 - - - -
20/09:00am 13.2 NNE 3 5 1009.2 R 0.0 Haze Mostly clear 30 - - - -
20/08:30am 12.4 NW 7 10 1008.8 - 0.0 - Mostly clear 10 - - - -
20/08:00am 11.6 WNW 11 15 1008.4 - 0.0 - Mostly clear 10 - - - -
20/07:30am 11.5 W 4 10 1008.0 - 0.0 - Mostly clear 10 - - - -
20/07:00am 11.8 WSW 7 10 1007.5 - 0.0 - Mostly clear 10 - - - -
20/06:30am 12.7 WSW 9 15 1007.2 - 0.0 - Mostly clear 10 - - - -
20/06:00am 13.0 WSW 7 19 1006.9 R 0.0 Fine Mostly clear 40 - - - -
20/05:30am 12.5 W 10 16 1006.4 - 0.0 - Mostly clear 10 - - - -
20/05:00am 12.3 W 7 10 1006.1 - 0.0 - Mostly clear 10 - - - -
20/04:30am 13.0 W 11 17 1005.8 - 0.0 - Mostly clear 10 - - - -
20/04:00am 13.2 W 14 22 1005.6 - 0.0 - Mostly clear 10 - - - -
20/03:30am 13.0 W 16 22 1005.5 - 0.0 - Mostly clear 10 - - - -
20/03:00am 13.6 W 17 24 1005.1 R 0.0 Fine Mostly clear 40 - - - -
20/02:40am 13.9 W 18 28 1005.1 - 0.0 - Mostly clear 10 - - - -
20/02:30am 13.8 W 20 27 1005.2 - 0.0 - Mostly clear 10 - - - -
20/02:00am 14.0 W 22 28 1004.7 - 0.0 - Mostly clear 10 - - - -
20/01:38am 14.3 W 25 35 1004.3 - 0.0 - Mostly clear 10 - - - -
20/01:30am 14.2 W 26 35 1004.3 - 0.0 - Mostly clear 10 - - - -
20/01:00am 14.0 WNW 26 34 1004.1 - 0.0 - Mostly clear 10 - - - -
20/12:32am 14.0 WNW 24 37 1004.2 - 0.0 - Mostly clear 10 - - - -
20/12:30am 13.6 WNW 23 31 1004.2 - 0.0 - Mostly clear 10 - - - -
20/12:00am 13.8 WNW 21 31 1004.6 F 0.0 Fine Mostly clear 40 - - - -
 
Date/Time
EST
Temp
°C
Wind Pressure Rain since
9am
mm
Weather Cloud Vis
km
Sea
Height
m
Swell
Dir  Spd
kts
Gust
kts
hPa Trend Height
m
Period
s
Dir
19/11:30pm 14.2 WNW 25 39 1004.7 - 0.0 - Mostly clear 10 - - - -
19/11:00pm 14.1 W 27 42 1004.7 - 0.0 - Mostly clear 10 - - - -
19/10:34pm 13.8 WNW 26 36 1004.6 - 0.0 - Mostly clear 10 - - - -
19/10:30pm 13.8 WNW 27 33 1004.6 - 0.0 - Mostly clear 10 - - - -
19/10:01pm 14.0 WNW 27 37 1005.2 - 0.0 - Mostly clear 10 - - - -
19/10:00pm 14.0 WNW 26 34 1005.1 - 0.0 - Mostly clear 10 - - - -
19/09:34pm 13.6 WNW 19 29 1005.9 - 0.0 - Mostly clear 10 - - - -
19/09:30pm 13.4 WNW 18 25 1005.9 - 0.0 - Mostly clear 10 - - - -
19/09:00pm 13.0 WNW 15 26 1006.6 F 0.0 Fine Partly cloudy 40 - - - -
19/08:30pm 13.3 WNW 20 32 1006.1 - 0.0 - Mostly clear 10 - - - -
19/08:00pm 12.7 WNW 23 33 1006.8 - 0.0 - Partly cloudy 10 - - - -
19/07:30pm 13.0 WNW 27 38 1006.9 - 0.0 - Mostly clear 10 - - - -
19/07:24pm 13.0 WNW 26 38 1007.0 - 0.0 - Mostly clear 10 - - - -
19/07:00pm 12.8 WNW 23 29 1007.7 - 0.0 - Mostly clear 10 - - - -
19/06:30pm 12.5 WNW 22 37 1008.3 - 0.0 - Mostly clear 10 - - - -
19/06:25pm 12.8 WNW 23 37 1008.3 - 0.0 - Mostly clear 10 - - - -
19/06:00pm 13.2 WNW 21 30 1008.5 F 0.0 Fine Mostly cloudy 40 - - - -
19/05:45pm 13.4 WNW 27 37 1008.4 - 0.0 - Mostly clear 10 - - - -
19/05:30pm 13.5 WNW 24 33 1008.4 - 0.0 - Mostly clear 10 - - - -
19/05:26pm 13.6 WNW 21 32 1008.4 - 0.0 - Mostly clear 10 - - - -
19/05:00pm 13.9 NW 17 26 1008.6 - 0.0 - Mostly clear 10 - - - -
19/04:55pm 14.1 NW 15 26 1009.0 - 0.0 - Mostly clear 10 - - - -
19/04:30pm 13.8 NW 15 22 1009.6 - 0.0 - Mostly clear 10 - - - -
19/04:03pm 13.7 NW 19 31 1009.8 - 0.0 - Mostly clear 10 - - - -
19/04:00pm 13.8 NW 18 25 1009.9 - 0.0 - Mostly clear 10 - - - -
19/03:30pm 13.7 NW 13 22 1010.7 - 0.0 - Mostly clear 10 - - - -
19/03:00pm 13.5 NNW 12 17 1011.0 F 0.0 Fine Mostly cloudy 40 - - - -
19/02:30pm 13.6 NW 20 30 1011.3 - 0.0 - Mostly clear 10 - - - -
19/02:09pm 13.8 NW 19 30 1011.2 - 0.0 - Mostly clear 10 - - - -
19/02:00pm 13.7 NW 17 24 1011.4 - 0.0 - Mostly clear 10 - - - -
19/01:30pm 14.2 NW 19 32 1012.1 - 0.0 - Mostly clear 10 - - - -
19/01:27pm 14.3 NW 18 32 1012.0 - 0.0 - Mostly clear 10 - - - -
19/01:00pm 14.7 NW 14 20 1012.4 - 0.0 - Mostly clear 10 - - - -
19/12:30pm 14.8 NW 13 16 1012.9 - 0.0 - Mostly clear 10 - - - -
19/12:00pm 15.1 NW 11 18 1013.5 F 0.0 Fine Mostly cloudy 40 - - - -
19/11:30am 13.9 NNW 13 20 1014.0 - 0.0 - Mostly clear 10 - - - -
19/11:00am 12.9 NNW 13 18 1014.4 - 0.0 - Mostly clear 10 - - - -
19/10:30am 13.4 NNW 13 19 1014.8 - 0.0 - Mostly clear 10 - - - -
19/10:00am 12.7 NNW 12 20 1015.2 - 0.0 - Mostly clear 10 - - - -
19/09:30am 12.4 NNW 11 17 1015.7 - 0.0 - Mostly clear 10 - - - -
19/09:00am 11.2 NNW 6 10 1016.0 F 0.0 Fine Mostly cloudy 40 - - - -
19/08:30am 9.9 NNW 8 11 1016.5 - 0.0 - Mostly clear 10 - - - -
19/08:00am 9.1 NNW 7 10 1016.7 - 0.0 - Mostly clear 10 - - - -
19/07:30am 8.7 NW 7 10 1016.8 - 0.0 - Mostly clear 10 - - - -
19/07:00am 8.9 NNW 7 9 1016.9 - 0.0 - Mostly clear 10 - - - -
19/06:30am 9.0 NW 7 8 1017.1 - 0.0 - Mostly clear 10 - - - -
19/06:00am 9.1 NW 7 9 1017.2 F 0.0 Fine Mostly clear 40 - - - -
19/05:30am 9.3 NW 10 13 1017.2 - 0.0 - Mostly clear 10 - - - -
19/05:00am 9.5 NW 9 11 1017.1 - 0.0 - Mostly clear 10 - - - -
19/04:30am 8.6 WNW 7 9 1017.3 - 0.0 - Mostly clear 10 - - - -
19/04:00am 9.2 NW 7 9 1017.3 - 0.0 - Mostly clear 10 - - - -
19/03:30am 9.8 NNW 8 12 1017.3 - 0.0 - Mostly clear 10 - - - -
19/03:00am 9.9 NNW 8 10 1017.3 F 0.0 Fine Mostly clear 40 - - - -
19/02:30am 8.7 WNW 6 7 1017.5 - 0.0 - Mostly clear 10 - - - -
19/02:00am 9.8 NW 7 11 1017.8 - 0.0 - Mostly clear 10 - - - -
19/01:30am 9.2 WNW 5 7 1018.2 - 0.0 - Mostly clear 10 - - - -
19/01:00am 8.5 WNW 7 9 1018.2 - 0.0 - Mostly clear 10 - - - -
19/12:30am 9.0 NW 8 11 1018.5 - 0.0 - Mostly clear 10 - - - -
19/12:00am 9.2 NW 9 12 1018.6 R 0.0 Fine Mostly clear 40 - - - -
 
Date/Time
EST
Temp
°C
Wind Pressure Rain since
9am
mm
Weather Cloud Vis
km
Sea
Height
m
Swell
Dir  Spd
kts
Gust
kts
hPa Trend Height
m
Period
s
Dir
18/11:30pm 8.9 NW 7 8 1018.6 - 0.0 - Mostly clear 10 - - - -
18/11:00pm 9.1 N 4 5 1018.7 - 0.0 - Mostly clear 10 - - - -
18/10:30pm 8.6 NW 4 6 1019.1 - 0.0 - Mostly clear 10 - - - -
18/10:00pm 9.3 NNW 8 10 1018.9 - 0.0 - Mostly clear 10 - - - -
18/09:30pm 10.0 NNW 8 11 1018.9 - 0.0 - Mostly clear 10 - - - -

Other Formats:

Comma delimited format used in spreadsheet applications
http://www.bom.gov.au/fwo/IDT60701/IDT60701.94975.axf

JavaScript Object Notation format (JSON) in row-major order
http://www.bom.gov.au/fwo/IDT60701/IDT60701.94975.json